Time;durP1;ratioP1;P1;durP2;ratioP2;P2;SDS_P1;SDS_P2;PMS_P1;PMS_P2;Temp;Humidity;BMP_temperature;BMP_pressure;BME280_temperature;BME280_humidity;BME280_pressure;Samples;Min_cycle;Max_cycle;Signal;HPM_P1;HPM_P2
2023/07/26 00:03:24;;;;;;;1999.90;999.90;;;;;;;;;;6724492;88;20379;-76
2023/07/26 00:13:25;;;;;;;1999.90;999.90;;;;;;;;;;6727974;88;20210;-76
2023/07/26 00:23:26;;;;;;;1999.90;999.90;;;;;;;;;;6727720;88;20279;-76
2023/07/26 00:33:27;;;;;;;1999.90;999.90;;;;;;;;;;6728275;88;20256;-77
2023/07/26 00:43:28;;;;;;;1999.90;999.90;;;;;;;;;;6728375;88;20242;-76
2023/07/26 00:53:29;;;;;;;1999.90;999.90;;;;;;;;;;6733795;88;20302;-76
2023/07/26 01:03:30;;;;;;;1999.90;999.90;;;;;;;;;;6719969;88;20322;-76
2023/07/26 01:13:43;;;;;;;1999.90;999.90;;;;;;;;;;6721268;88;20233;-76
2023/07/26 01:23:44;;;;;;;1999.90;999.90;;;;;;;;;;6725296;88;20252;-76
2023/07/26 01:33:48;;;;;;;1999.90;999.90;;;;;;;;;;6716813;88;20215;-77
2023/07/26 01:43:49;;;;;;;1999.90;999.90;;;;;;;;;;6716842;88;20222;-76
2023/07/26 01:53:50;;;;;;;1999.90;999.90;;;;;;;;;;6723297;88;20189;-76
2023/07/26 02:03:51;;;;;;;1999.90;999.90;;;;;;;;;;6728507;88;20295;-76
2023/07/26 02:13:52;;;;;;;1999.90;999.90;;;;;;;;;;6730857;88;20205;-76
2023/07/26 02:23:52;;;;;;;1999.90;999.90;;;;;;;;;;6728593;88;20262;-76
2023/07/26 02:33:53;;;;;;;1999.90;999.90;;;;;;;;;;6720843;88;20638;-76
2023/07/26 02:43:54;;;;;;;1999.90;999.90;;;;;;;;;;6724075;88;20247;-76
2023/07/26 02:53:55;;;;;;;1999.90;999.90;;;;;;;;;;6723810;88;20199;-76
2023/07/26 03:03:57;;;;;;;1999.90;999.90;;;;;;;;;;6729698;88;20280;-76
2023/07/26 03:13:58;;;;;;;1999.90;999.90;;;;;;;;;;6731420;88;20186;-76
2023/07/26 03:23:59;;;;;;;1999.90;999.90;;;;;;;;;;6724948;88;20190;-75
2023/07/26 03:34:00;;;;;;;1999.90;999.90;;;;;;;;;;6724334;88;20186;-76
2023/07/26 03:44:01;;;;;;;1999.90;999.90;;;;;;;;;;6736554;88;20230;-76
2023/07/26 03:54:02;;;;;;;1999.90;999.90;;;;;;;;;;6734694;88;20190;-76
2023/07/26 04:04:03;;;;;;;1999.90;999.90;;;;;;;;;;6726612;88;20327;-76
2023/07/26 04:14:04;;;;;;;1999.90;999.90;;;;;;;;;;6726785;88;20251;-75
2023/07/26 04:24:05;;;;;;;1999.90;999.90;;;;;;;;;;6723953;88;20200;-76
2023/07/26 04:34:06;;;;;;;1999.90;999.90;;;;;;;;;;6729669;88;20201;-77
2023/07/26 04:44:08;;;;;;;1999.90;999.90;;;;;;;;;;6718794;88;20214;-76
2023/07/26 04:54:09;;;;;;;1999.90;999.90;;;;;;;;;;6722592;88;20243;-76
2023/07/26 05:04:10;;;;;;;1999.90;999.90;;;;;;;;;;6722865;88;20779;-77
2023/07/26 05:14:11;;;;;;;1999.90;999.90;;;;;;;;;;6725651;88;20649;-75
2023/07/26 05:24:11;;;;;;;1999.90;999.90;;;;;;;;;;6727304;88;20267;-77
2023/07/26 05:34:12;;;;;;;1999.90;999.90;;;;;;;;;;6721434;88;20630;-77
2023/07/26 05:44:13;;;;;;;1999.90;999.90;;;;;;;;;;6723806;88;20550;-76
2023/07/26 05:54:14;;;;;;;1999.90;999.90;;;;;;;;;;6725175;88;20366;-76
2023/07/26 06:04:15;;;;;;;1999.90;999.90;;;;;;;;;;6730050;88;20630;-76
2023/07/26 06:14:16;;;;;;;1999.90;999.90;;;;;;;;;;6733334;88;20213;-76
2023/07/26 06:24:17;;;;;;;1999.90;999.90;;;;;;;;;;6731562;88;20218;-76
2023/07/26 06:34:18;;;;;;;1999.90;999.90;;;;;;;;;;6730823;88;20181;-77
2023/07/26 06:44:19;;;;;;;1999.90;999.90;;;;;;;;;;6724728;88;20176;-76
2023/07/26 06:54:20;;;;;;;1999.90;999.90;;;;;;;;;;6723964;88;20189;-77
2023/07/26 07:04:21;;;;;;;1999.90;999.90;;;;;;;;;;6726142;88;20274;-76
2023/07/26 07:14:22;;;;;;;1999.90;999.90;;;;;;;;;;6717095;88;20194;-76
2023/07/26 07:24:44;;;;;;;1999.90;999.90;;;;;;;;;;6745426;77;20204;-82
2023/07/26 07:34:45;;;;;;;1999.90;999.90;;;;;;;;;;6766303;88;20196;-80
2023/07/26 07:44:46;;;;;;;1999.90;999.90;;;;;;;;;;6770831;88;20191;-81
2023/07/26 07:54:47;;;;;;;1999.90;999.90;;;;;;;;;;6772224;88;20184;-81
2023/07/26 08:04:48;;;;;;;1999.90;999.90;;;;;;;;;;6766009;88;20201;-83
2023/07/26 08:14:52;;;;;;;1999.90;999.90;;;;;;;;;;6768797;88;20553;-81
2023/07/26 08:24:53;;;;;;;1999.90;999.90;;;;;;;;;;6765407;87;20219;-83
2023/07/26 08:34:54;;;;;;;1999.90;999.90;;;;;;;;;;6767874;88;20201;-81
2023/07/26 08:44:56;;;;;;;1999.90;999.90;;;;;;;;;;6771515;88;20728;-82
2023/07/26 08:54:57;;;;;;;1999.90;999.90;;;;;;;;;;6769543;88;20184;-80
2023/07/26 09:04:58;;;;;;;1999.90;999.90;;;;;;;;;;6770472;88;20179;-81
2023/07/26 09:14:59;;;;;;;1999.90;999.90;;;;;;;;;;6769258;88;20191;-81
2023/07/26 09:25:00;;;;;;;1999.90;999.90;;;;;;;;;;6747773;88;20191;-81
2023/07/26 09:35:04;;;;;;;1999.90;999.90;;;;;;;;;;6753526;88;20184;-79
2023/07/26 09:45:06;;;;;;;1999.90;999.90;;;;;;;;;;6755848;88;20188;-81
2023/07/26 09:55:07;;;;;;;1999.90;999.90;;;;;;;;;;6762918;88;20177;-81
2023/07/26 10:05:09;;;;;;;1999.90;999.90;;;;;;;;;;6766616;88;20191;-82
2023/07/26 10:15:12;;;;;;;1999.90;999.90;;;;;;;;;;6765676;88;20179;-83
2023/07/26 10:25:13;;;;;;;1999.90;999.90;;;;;;;;;;6764556;88;20192;-84
2023/07/26 10:35:26;;;;;;;1999.90;999.90;;;;;;;;;;6745776;88;20231;-81
2023/07/26 10:45:37;;;;;;;1999.90;999.90;;;;;;;;;;6766916;88;20822;-84
2023/07/26 10:55:39;;;;;;;1999.90;999.90;;;;;;;;;;6768012;88;20249;-82
2023/07/26 11:05:40;;;;;;;1999.90;999.90;;;;;;;;;;6766311;88;20160;-84
2023/07/26 11:15:42;;;;;;;1999.90;999.90;;;;;;;;;;6765584;88;20247;-83
2023/07/26 11:25:44;;;;;;;1999.90;999.90;;;;;;;;;;6759103;88;20367;-82
2023/07/26 11:35:46;;;;;;;1999.90;999.90;;;;;;;;;;6758074;88;20177;-81
2023/07/26 11:45:47;;;;;;;1999.90;999.90;;;;;;;;;;6755398;88;20196;-81
2023/07/26 11:55:51;;;;;;;1999.90;999.90;;;;;;;;;;6755876;88;20172;-80
2023/07/26 12:05:52;;;;;;;1999.90;999.90;;;;;;;;;;6756761;88;20206;-83
2023/07/26 12:15:54;;;;;;;1999.90;999.90;;;;;;;;;;6756379;88;20269;-82
2023/07/26 12:25:57;;;;;;;1999.90;999.90;;;;;;;;;;6755734;88;20196;-81
2023/07/26 12:35:58;;;;;;;1999.90;999.90;;;;;;;;;;6761377;88;20761;-83
2023/07/26 12:46:03;;;;;;;1999.90;999.90;;;;;;;;;;6764294;88;20223;-85
2023/07/26 12:56:04;;;;;;;1999.90;999.90;;;;;;;;;;6764848;88;20161;-83
2023/07/26 13:06:05;;;;;;;1999.90;999.90;;;;;;;;;;6764843;88;20651;-83
2023/07/26 13:16:06;;;;;;;1999.90;999.90;;;;;;;;;;6764229;88;20179;-84
2023/07/26 13:26:07;;;;;;;1999.90;999.90;;;;;;;;;;6749351;77;20833;-76
2023/07/26 13:36:08;;;;;;;1999.90;999.90;;;;;;;;;;6739667;88;20342;-79
2023/07/26 13:46:09;;;;;;;1999.90;999.90;;;;;;;;;;6745720;88;20215;-78
2023/07/26 13:56:10;;;;;;;1999.90;999.90;;;;;;;;;;6741814;88;20217;-77
2023/07/26 14:06:11;;;;;;;1999.90;999.90;;;;;;;;;;6738803;88;20189;-78
2023/07/26 14:16:12;;;;;;;1999.90;999.90;;;;;;;;;;6735228;88;20188;-79
2023/07/26 14:26:14;;;;;;;1999.90;999.90;;;;;;;;;;6737852;88;20205;-77
2023/07/26 14:36:15;;;;;;;1999.90;999.90;;;;;;;;;;6745608;88;20227;-78
2023/07/26 14:46:16;;;;;;;1999.90;999.90;;;;;;;;;;6749042;88;20830;-77
2023/07/26 14:56:17;;;;;;;1999.90;999.90;;;;;;;;;;6741165;88;20687;-79
2023/07/26 15:06:18;;;;;;;1999.90;999.90;;;;;;;;;;6743592;88;20192;-79
2023/07/26 15:16:19;;;;;;;1999.90;999.90;;;;;;;;;;6745205;88;20284;-76
2023/07/26 15:26:20;;;;;;;1999.90;999.90;;;;;;;;;;6735693;88;20181;-77
2023/07/26 15:36:21;;;;;;;1999.90;999.90;;;;;;;;;;6744396;88;20192;-77
2023/07/26 15:46:22;;;;;;;1999.90;999.90;;;;;;;;;;6741844;88;20227;-78
2023/07/26 15:56:23;;;;;;;1999.90;999.90;;;;;;;;;;6738329;88;20215;-77
2023/07/26 16:06:24;;;;;;;1999.90;999.90;;;;;;;;;;6749288;88;20217;-77
2023/07/26 16:16:25;;;;;;;1999.90;999.90;;;;;;;;;;6736657;88;20210;-77
2023/07/26 16:26:26;;;;;;;1999.90;999.90;;;;;;;;;;6739482;88;20733;-77
2023/07/26 16:36:27;;;;;;;1999.90;999.90;;;;;;;;;;6735607;88;20184;-77
2023/07/26 16:46:28;;;;;;;1999.90;999.90;;;;;;;;;;6739774;88;20193;-77
2023/07/26 16:56:29;;;;;;;1999.90;999.90;;;;;;;;;;6741190;88;20188;-78
2023/07/26 17:06:30;;;;;;;1999.90;999.90;;;;;;;;;;6760120;88;20205;-78
2023/07/26 17:16:31;;;;;;;1999.90;999.90;;;;;;;;;;6738576;88;20192;-78
2023/07/26 17:26:32;;;;;;;1999.90;999.90;;;;;;;;;;6740572;88;20177;-78
2023/07/26 17:36:33;;;;;;;1999.90;999.90;;;;;;;;;;6739877;88;20268;-77
2023/07/26 17:46:34;;;;;;;1999.90;999.90;;;;;;;;;;6739382;88;20576;-78
2023/07/26 17:56:35;;;;;;;1999.90;999.90;;;;;;;;;;6738861;88;20229;-77
2023/07/26 18:06:36;;;;;;;1999.90;999.90;;;;;;;;;;6739922;88;20211;-78
2023/07/26 18:16:38;;;;;;;1999.90;999.90;;;;;;;;;;6740591;88;20213;-78
2023/07/26 18:26:40;;;;;;;1999.90;999.90;;;;;;;;;;6751541;88;20298;-78
2023/07/26 18:36:41;;;;;;;1999.90;999.90;;;;;;;;;;6747771;88;20180;-78
2023/07/26 18:46:42;;;;;;;1999.90;999.90;;;;;;;;;;6747379;88;20214;-77
2023/07/26 18:56:43;;;;;;;1999.90;999.90;;;;;;;;;;6742024;88;20320;-77
2023/07/26 19:06:44;;;;;;;1999.90;999.90;;;;;;;;;;6747172;88;20278;-77
2023/07/26 19:16:45;;;;;;;1999.90;999.90;;;;;;;;;;6741810;88;20197;-77
2023/07/26 19:26:46;;;;;;;1999.90;999.90;;;;;;;;;;6736713;88;20305;-77
2023/07/26 19:36:47;;;;;;;1999.90;999.90;;;;;;;;;;6737167;88;20200;-78
2023/07/26 19:46:48;;;;;;;1999.90;999.90;;;;;;;;;;6736936;88;20636;-78
2023/07/26 19:56:49;;;;;;;1999.90;999.90;;;;;;;;;;6737601;88;20311;-78
2023/07/26 20:06:51;;;;;;;1999.90;999.90;;;;;;;;;;6737833;88;20772;-78
2023/07/26 20:16:52;;;;;;;1999.90;999.90;;;;;;;;;;6737941;88;20250;-79
2023/07/26 20:26:53;;;;;;;1999.90;999.90;;;;;;;;;;6737443;88;20235;-77
2023/07/26 20:36:54;;;;;;;1999.90;999.90;;;;;;;;;;6739230;88;20180;-77
2023/07/26 20:46:55;;;;;;;1999.90;999.90;;;;;;;;;;6737457;88;20216;-78
2023/07/26 20:56:56;;;;;;;1999.90;999.90;;;;;;;;;;6736216;88;20697;-78
2023/07/26 21:06:57;;;;;;;1999.90;999.90;;;;;;;;;;6745669;88;20218;-79
2023/07/26 21:16:58;;;;;;;1999.90;999.90;;;;;;;;;;6749699;88;20191;-77
2023/07/26 21:26:59;;;;;;;1999.90;999.90;;;;;;;;;;6737230;88;20274;-77
2023/07/26 21:37:00;;;;;;;1999.90;999.90;;;;;;;;;;6742608;88;20217;-77
2023/07/26 21:47:01;;;;;;;1999.90;999.90;;;;;;;;;;6742235;88;20187;-78
2023/07/26 21:57:02;;;;;;;1999.90;999.90;;;;;;;;;;6744397;88;20189;-77
2023/07/26 22:07:03;;;;;;;1999.90;999.90;;;;;;;;;;6748909;88;20213;-77
2023/07/26 22:17:04;;;;;;;1999.90;999.90;;;;;;;;;;6725014;88;20182;-78
2023/07/26 22:27:05;;;;;;;1999.90;999.90;;;;;;;;;;6726178;88;20707;-78
2023/07/26 22:37:06;;;;;;;1999.90;999.90;;;;;;;;;;6727911;88;20213;-78
2023/07/26 22:47:07;;;;;;;1999.90;999.90;;;;;;;;;;6725698;88;20289;-77
2023/07/26 22:57:08;;;;;;;1999.90;999.90;;;;;;;;;;6722926;88;20189;-78
2023/07/26 23:07:09;;;;;;;1999.90;999.90;;;;;;;;;;6724260;88;20185;-78
2023/07/26 23:17:10;;;;;;;1999.90;999.90;;;;;;;;;;6730091;88;20188;-77
2023/07/26 23:27:11;;;;;;;1999.90;999.90;;;;;;;;;;6730752;88;20208;-77
2023/07/26 23:37:12;;;;;;;1999.90;999.90;;;;;;;;;;6741652;88;20803;-78
2023/07/26 23:47:13;;;;;;;1999.90;999.90;;;;;;;;;;6748971;88;20200;-77
2023/07/26 23:57:14;;;;;;;1999.90;999.90;;;;;;;;;;6742617;88;20602;-77
